sensor_id;sensor_type;location;lat;lon;timestamp;P1;durP1;ratioP1;P2;durP2;ratioP2
20298;SDS011;10308;42.688;23.256;2023-06-14T00:00:37;5.32;;;4.88;;
20298;SDS011;10308;42.688;23.256;2023-06-14T00:03:06;5.10;;;4.60;;
20298;SDS011;10308;42.688;23.256;2023-06-14T00:05:34;4.68;;;4.30;;
20298;SDS011;10308;42.688;23.256;2023-06-14T00:08:07;5.15;;;4.75;;
20298;SDS011;10308;42.688;23.256;2023-06-14T00:10:35;5.07;;;4.68;;
20298;SDS011;10308;42.688;23.256;2023-06-14T00:13:02;5.07;;;4.57;;
20298;SDS011;10308;42.688;23.256;2023-06-14T00:15:31;4.88;;;4.38;;
20298;SDS011;10308;42.688;23.256;2023-06-14T00:17:59;5.25;;;4.45;;
20298;SDS011;10308;42.688;23.256;2023-06-14T00:20:28;4.50;;;4.10;;
20298;SDS011;10308;42.688;23.256;2023-06-14T00:22:58;4.90;;;4.50;;
20298;SDS011;10308;42.688;23.256;2023-06-14T00:25:26;4.70;;;4.22;;
20298;SDS011;10308;42.688;23.256;2023-06-14T00:27:55;5.05;;;4.25;;
20298;SDS011;10308;42.688;23.256;2023-06-14T00:30:24;5.70;;;5.20;;
20298;SDS011;10308;42.688;23.256;2023-06-14T00:32:56;5.20;;;4.57;;
20298;SDS011;10308;42.688;23.256;2023-06-14T00:35:24;5.30;;;4.80;;
20298;SDS011;10308;42.688;23.256;2023-06-14T00:37:52;5.10;;;4.70;;
20298;SDS011;10308;42.688;23.256;2023-06-14T00:40:23;5.88;;;4.72;;
20298;SDS011;10308;42.688;23.256;2023-06-14T00:42:51;4.57;;;4.18;;
20298;SDS011;10308;42.688;23.256;2023-06-14T00:45:21;5.40;;;4.90;;
20298;SDS011;10308;42.688;23.256;2023-06-14T00:47:53;5.32;;;4.93;;
20298;SDS011;10308;42.688;23.256;2023-06-14T00:50:20;5.80;;;5.18;;
20298;SDS011;10308;42.688;23.256;2023-06-14T00:52:50;5.85;;;5.05;;
20298;SDS011;10308;42.688;23.256;2023-06-14T00:55:18;6.53;;;5.93;;
20298;SDS011;10308;42.688;23.256;2023-06-14T00:57:47;7.20;;;6.50;;
20298;SDS011;10308;42.688;23.256;2023-06-14T01:00:16;7.40;;;6.72;;
20298;SDS011;10308;42.688;23.256;2023-06-14T01:02:44;7.60;;;6.90;;
20298;SDS011;10308;42.688;23.256;2023-06-14T01:05:11;8.07;;;7.35;;
20298;SDS011;10308;42.688;23.256;2023-06-14T01:07:43;9.80;;;8.88;;
20298;SDS011;10308;42.688;23.256;2023-06-14T01:10:21;13.00;;;11.70;;
20298;SDS011;10308;42.688;23.256;2023-06-14T01:12:58;16.23;;;14.52;;
20298;SDS011;10308;42.688;23.256;2023-06-14T01:15:30;18.50;;;16.80;;
20298;SDS011;10308;42.688;23.256;2023-06-14T01:17:58;20.83;;;18.83;;
20298;SDS011;10308;42.688;23.256;2023-06-14T01:20:31;23.33;;;21.10;;
20298;SDS011;10308;42.688;23.256;2023-06-14T01:23:06;26.60;;;23.92;;
20298;SDS011;10308;42.688;23.256;2023-06-14T01:25:33;21.42;;;19.33;;
20298;SDS011;10308;42.688;23.256;2023-06-14T01:28:02;16.38;;;14.82;;
20298;SDS011;10308;42.688;23.256;2023-06-14T01:30:35;10.45;;;9.50;;
20298;SDS011;10308;42.688;23.256;2023-06-14T01:33:04;8.50;;;7.70;;
20298;SDS011;10308;42.688;23.256;2023-06-14T01:35:32;7.30;;;6.60;;
20298;SDS011;10308;42.688;23.256;2023-06-14T01:38:00;5.45;;;5.03;;
20298;SDS011;10308;42.688;23.256;2023-06-14T01:40:30;5.97;;;4.60;;
20298;SDS011;10308;42.688;23.256;2023-06-14T01:42:59;5.13;;;4.63;;
20298;SDS011;10308;42.688;23.256;2023-06-14T01:45:27;4.75;;;4.38;;
20298;SDS011;10308;42.688;23.256;2023-06-14T01:47:56;5.13;;;4.70;;
20298;SDS011;10308;42.688;23.256;2023-06-14T01:50:23;5.07;;;4.38;;
20298;SDS011;10308;42.688;23.256;2023-06-14T01:52:55;4.97;;;4.57;;
20298;SDS011;10308;42.688;23.256;2023-06-14T01:55:23;4.65;;;4.35;;
20298;SDS011;10308;42.688;23.256;2023-06-14T01:57:53;5.00;;;4.70;;
20298;SDS011;10308;42.688;23.256;2023-06-14T02:00:22;4.57;;;4.28;;
20298;SDS011;10308;42.688;23.256;2023-06-14T02:02:50;4.93;;;4.18;;
20298;SDS011;10308;42.688;23.256;2023-06-14T02:05:18;4.60;;;4.20;;
20298;SDS011;10308;42.688;23.256;2023-06-14T02:07:47;4.68;;;4.13;;
20298;SDS011;10308;42.688;23.256;2023-06-14T02:10:15;4.43;;;4.13;;
20298;SDS011;10308;42.688;23.256;2023-06-14T02:12:42;4.97;;;4.35;;
20298;SDS011;10308;42.688;23.256;2023-06-14T02:15:11;5.05;;;4.57;;
20298;SDS011;10308;42.688;23.256;2023-06-14T02:17:43;4.53;;;4.13;;
20298;SDS011;10308;42.688;23.256;2023-06-14T02:20:11;5.05;;;4.65;;
20298;SDS011;10308;42.688;23.256;2023-06-14T02:22:40;4.70;;;4.30;;
20298;SDS011;10308;42.688;23.256;2023-06-14T02:25:07;4.28;;;3.97;;
20298;SDS011;10308;42.688;23.256;2023-06-14T02:27:35;4.10;;;3.80;;
20298;SDS011;10308;42.688;23.256;2023-06-14T02:30:02;4.50;;;4.20;;
20298;SDS011;10308;42.688;23.256;2023-06-14T02:32:33;5.97;;;4.13;;
20298;SDS011;10308;42.688;23.256;2023-06-14T02:35:00;4.75;;;4.35;;
20298;SDS011;10308;42.688;23.256;2023-06-14T02:37:28;4.60;;;3.88;;
20298;SDS011;10308;42.688;23.256;2023-06-14T02:39:56;4.03;;;3.65;;
20298;SDS011;10308;42.688;23.256;2023-06-14T02:42:24;4.50;;;4.10;;
20298;SDS011;10308;42.688;23.256;2023-06-14T02:44:52;3.83;;;3.63;;
20298;SDS011;10308;42.688;23.256;2023-06-14T02:47:21;5.70;;;3.65;;
20298;SDS011;10308;42.688;23.256;2023-06-14T02:49:50;4.40;;;4.10;;
20298;SDS011;10308;42.688;23.256;2023-06-14T02:52:16;4.38;;;4.07;;
20298;SDS011;10308;42.688;23.256;2023-06-14T02:54:44;4.35;;;3.92;;
20298;SDS011;10308;42.688;23.256;2023-06-14T02:57:12;4.60;;;3.90;;
20298;SDS011;10308;42.688;23.256;2023-06-14T02:59:40;4.10;;;3.80;;
20298;SDS011;10308;42.688;23.256;2023-06-14T03:02:08;4.40;;;4.05;;
20298;SDS011;10308;42.688;23.256;2023-06-14T03:04:35;5.20;;;3.95;;
20298;SDS011;10308;42.688;23.256;2023-06-14T03:07:05;4.72;;;4.32;;
20298;SDS011;10308;42.688;23.256;2023-06-14T03:09:34;4.32;;;3.92;;
20298;SDS011;10308;42.688;23.256;2023-06-14T03:12:02;6.05;;;3.97;;
20298;SDS011;10308;42.688;23.256;2023-06-14T03:14:32;4.70;;;4.20;;
20298;SDS011;10308;42.688;23.256;2023-06-14T03:16:59;4.00;;;3.70;;
20298;SDS011;10308;42.688;23.256;2023-06-14T03:19:26;4.40;;;3.65;;
20298;SDS011;10308;42.688;23.256;2023-06-14T03:21:54;4.22;;;3.83;;
20298;SDS011;10308;42.688;23.256;2023-06-14T03:24:25;4.88;;;4.47;;
20298;SDS011;10308;42.688;23.256;2023-06-14T03:26:55;5.20;;;3.90;;
20298;SDS011;10308;42.688;23.256;2023-06-14T03:29:23;4.53;;;4.13;;
20298;SDS011;10308;42.688;23.256;2023-06-14T03:31:58;4.40;;;4.10;;
20298;SDS011;10308;42.688;23.256;2023-06-14T03:34:26;3.88;;;3.58;;
20298;SDS011;10308;42.688;23.256;2023-06-14T03:36:54;4.40;;;4.00;;
20298;SDS011;10308;42.688;23.256;2023-06-14T03:39:23;4.43;;;4.03;;
20298;SDS011;10308;42.688;23.256;2023-06-14T03:41:55;4.50;;;4.10;;
20298;SDS011;10308;42.688;23.256;2023-06-14T03:44:23;4.40;;;4.10;;
20298;SDS011;10308;42.688;23.256;2023-06-14T03:46:51;5.22;;;4.05;;
20298;SDS011;10308;42.688;23.256;2023-06-14T03:49:21;4.57;;;4.20;;
20298;SDS011;10308;42.688;23.256;2023-06-14T03:51:49;4.70;;;3.83;;
20298;SDS011;10308;42.688;23.256;2023-06-14T03:54:19;4.50;;;4.10;;
20298;SDS011;10308;42.688;23.256;2023-06-14T03:56:48;4.15;;;3.75;;
20298;SDS011;10308;42.688;23.256;2023-06-14T03:59:16;5.00;;;3.72;;
20298;SDS011;10308;42.688;23.256;2023-06-14T04:01:44;4.60;;;4.20;;
20298;SDS011;10308;42.688;23.256;2023-06-14T04:04:13;4.68;;;4.18;;
20298;SDS011;10308;42.688;23.256;2023-06-14T04:06:42;4.05;;;3.75;;
20298;SDS011;10308;42.688;23.256;2023-06-14T04:09:13;4.65;;;4.25;;
20298;SDS011;10308;42.688;23.256;2023-06-14T04:11:41;3.75;;;3.45;;
20298;SDS011;10308;42.688;23.256;2023-06-14T04:14:09;4.57;;;3.70;;
20298;SDS011;10308;42.688;23.256;2023-06-14T04:16:38;4.00;;;3.60;;
20298;SDS011;10308;42.688;23.256;2023-06-14T04:19:05;4.97;;;4.20;;
20298;SDS011;10308;42.688;23.256;2023-06-14T04:21:32;4.05;;;3.65;;
20298;SDS011;10308;42.688;23.256;2023-06-14T04:24:01;4.20;;;3.90;;
20298;SDS011;10308;42.688;23.256;2023-06-14T04:26:29;4.18;;;3.88;;
20298;SDS011;10308;42.688;23.256;2023-06-14T04:28:58;4.40;;;4.00;;
20298;SDS011;10308;42.688;23.256;2023-06-14T04:31:28;5.03;;;4.63;;
20298;SDS011;10308;42.688;23.256;2023-06-14T04:34:01;5.40;;;5.00;;
20298;SDS011;10308;42.688;23.256;2023-06-14T04:36:32;5.05;;;4.65;;
20298;SDS011;10308;42.688;23.256;2023-06-14T04:39:02;5.35;;;4.85;;
20298;SDS011;10308;42.688;23.256;2023-06-14T04:41:32;5.05;;;4.55;;
20298;SDS011;10308;42.688;23.256;2023-06-14T04:44:01;5.20;;;4.07;;
20298;SDS011;10308;42.688;23.256;2023-06-14T04:46:29;6.18;;;4.70;;
20298;SDS011;10308;42.688;23.256;2023-06-14T04:48:58;5.45;;;5.05;;
20298;SDS011;10308;42.688;23.256;2023-06-14T04:51:30;5.20;;;4.78;;
20298;SDS011;10308;42.688;23.256;2023-06-14T04:54:00;5.95;;;5.45;;
20298;SDS011;10308;42.688;23.256;2023-06-14T04:56:29;5.72;;;5.20;;
20298;SDS011;10308;42.688;23.256;2023-06-14T04:58:57;5.85;;;5.35;;
20298;SDS011;10308;42.688;23.256;2023-06-14T05:01:26;6.50;;;5.40;;
20298;SDS011;10308;42.688;23.256;2023-06-14T05:03:54;5.75;;;5.25;;
20298;SDS011;10308;42.688;23.256;2023-06-14T05:06:22;5.38;;;4.88;;
20298;SDS011;10308;42.688;23.256;2023-06-14T05:08:52;6.70;;;6.20;;
20298;SDS011;10308;42.688;23.256;2023-06-14T05:11:20;7.60;;;5.85;;
20298;SDS011;10308;42.688;23.256;2023-06-14T05:13:50;6.22;;;5.72;;
20298;SDS011;10308;42.688;23.256;2023-06-14T05:16:18;6.28;;;5.78;;
20298;SDS011;10308;42.688;23.256;2023-06-14T05:18:52;7.60;;;6.38;;
20298;SDS011;10308;42.688;23.256;2023-06-14T05:21:20;6.70;;;6.00;;
20298;SDS011;10308;42.688;23.256;2023-06-14T05:23:47;6.50;;;5.90;;
20298;SDS011;10308;42.688;23.256;2023-06-14T05:26:16;6.75;;;5.50;;
20298;SDS011;10308;42.688;23.256;2023-06-14T05:28:44;6.30;;;5.78;;
20298;SDS011;10308;42.688;23.256;2023-06-14T05:31:11;6.47;;;5.97;;
20298;SDS011;10308;42.688;23.256;2023-06-14T05:33:39;6.25;;;5.18;;
20298;SDS011;10308;42.688;23.256;2023-06-14T05:36:07;6.63;;;5.97;;
20298;SDS011;10308;42.688;23.256;2023-06-14T05:38:35;7.68;;;5.85;;
20298;SDS011;10308;42.688;23.256;2023-06-14T05:41:02;6.82;;;6.22;;
20298;SDS011;10308;42.688;23.256;2023-06-14T05:43:31;8.38;;;6.15;;
20298;SDS011;10308;42.688;23.256;2023-06-14T05:45:58;8.27;;;6.50;;
20298;SDS011;10308;42.688;23.256;2023-06-14T05:48:25;6.53;;;5.90;;
20298;SDS011;10308;42.688;23.256;2023-06-14T05:50:54;7.35;;;6.57;;
20298;SDS011;10308;42.688;23.256;2023-06-14T05:53:22;6.78;;;6.15;;
20298;SDS011;10308;42.688;23.256;2023-06-14T05:55:50;6.47;;;5.88;;
20298;SDS011;10308;42.688;23.256;2023-06-14T05:58:20;6.07;;;5.47;;
20298;SDS011;10308;42.688;23.256;2023-06-14T06:00:49;6.18;;;5.57;;
20298;SDS011;10308;42.688;23.256;2023-06-14T06:03:20;6.93;;;6.28;;
20298;SDS011;10308;42.688;23.256;2023-06-14T06:05:49;6.57;;;5.97;;
20298;SDS011;10308;42.688;23.256;2023-06-14T06:08:16;7.55;;;6.75;;
20298;SDS011;10308;42.688;23.256;2023-06-14T06:10:47;7.35;;;6.43;;
20298;SDS011;10308;42.688;23.256;2023-06-14T06:13:13;7.05;;;6.38;;
20298;SDS011;10308;42.688;23.256;2023-06-14T06:15:41;7.93;;;7.22;;
20298;SDS011;10308;42.688;23.256;2023-06-14T06:18:11;7.97;;;6.90;;
20298;SDS011;10308;42.688;23.256;2023-06-14T06:20:39;8.32;;;7.50;;
20298;SDS011;10308;42.688;23.256;2023-06-14T06:23:06;8.18;;;7.35;;
20298;SDS011;10308;42.688;23.256;2023-06-14T06:25:36;9.18;;;7.22;;
20298;SDS011;10308;42.688;23.256;2023-06-14T06:28:04;9.07;;;7.20;;
20298;SDS011;10308;42.688;23.256;2023-06-14T06:30:31;11.20;;;7.78;;
20298;SDS011;10308;42.688;23.256;2023-06-14T06:32:59;11.68;;;7.90;;
20298;SDS011;10308;42.688;23.256;2023-06-14T06:35:29;8.68;;;7.03;;
20298;SDS011;10308;42.688;23.256;2023-06-14T06:37:59;10.25;;;8.15;;
20298;SDS011;10308;42.688;23.256;2023-06-14T06:40:28;9.23;;;8.10;;
20298;SDS011;10308;42.688;23.256;2023-06-14T06:42:56;9.95;;;8.57;;
20298;SDS011;10308;42.688;23.256;2023-06-14T06:45:24;9.15;;;8.13;;
20298;SDS011;10308;42.688;23.256;2023-06-14T06:47:52;9.18;;;8.30;;
20298;SDS011;10308;42.688;23.256;2023-06-14T06:50:21;9.25;;;7.97;;
20298;SDS011;10308;42.688;23.256;2023-06-14T06:52:51;11.13;;;7.97;;
20298;SDS011;10308;42.688;23.256;2023-06-14T06:55:21;9.75;;;8.75;;
20298;SDS011;10308;42.688;23.256;2023-06-14T06:57:50;8.45;;;7.80;;
20298;SDS011;10308;42.688;23.256;2023-06-14T07:00:19;8.30;;;7.43;;
20298;SDS011;10308;42.688;23.256;2023-06-14T07:02:48;8.70;;;7.90;;
20298;SDS011;10308;42.688;23.256;2023-06-14T07:05:14;8.68;;;7.88;;
20298;SDS011;10308;42.688;23.256;2023-06-14T07:07:42;9.20;;;8.38;;
20298;SDS011;10308;42.688;23.256;2023-06-14T07:10:12;9.60;;;8.65;;
20298;SDS011;10308;42.688;23.256;2023-06-14T07:12:40;9.95;;;8.95;;
20298;SDS011;10308;42.688;23.256;2023-06-14T07:15:07;10.95;;;9.35;;
20298;SDS011;10308;42.688;23.256;2023-06-14T07:17:36;11.27;;;10.18;;
20298;SDS011;10308;42.688;23.256;2023-06-14T07:20:04;9.68;;;8.30;;
20298;SDS011;10308;42.688;23.256;2023-06-14T07:22:38;10.70;;;9.75;;
20298;SDS011;10308;42.688;23.256;2023-06-14T07:25:08;11.23;;;10.13;;
20298;SDS011;10308;42.688;23.256;2023-06-14T07:27:40;9.68;;;8.77;;
20298;SDS011;10308;42.688;23.256;2023-06-14T07:30:10;9.65;;;8.65;;
20298;SDS011;10308;42.688;23.256;2023-06-14T07:32:39;10.10;;;9.20;;
20298;SDS011;10308;42.688;23.256;2023-06-14T07:35:07;11.02;;;9.80;;
20298;SDS011;10308;42.688;23.256;2023-06-14T07:37:36;11.52;;;9.32;;
20298;SDS011;10308;42.688;23.256;2023-06-14T07:40:05;11.10;;;9.43;;
20298;SDS011;10308;42.688;23.256;2023-06-14T07:42:34;10.82;;;9.45;;
20298;SDS011;10308;42.688;23.256;2023-06-14T07:45:04;10.80;;;9.35;;
20298;SDS011;10308;42.688;23.256;2023-06-14T07:47:33;11.45;;;10.35;;
20298;SDS011;10308;42.688;23.256;2023-06-14T07:50:01;13.32;;;10.10;;
20298;SDS011;10308;42.688;23.256;2023-06-14T07:52:31;10.80;;;9.55;;
20298;SDS011;10308;42.688;23.256;2023-06-14T07:54:58;10.35;;;9.30;;
20298;SDS011;10308;42.688;23.256;2023-06-14T07:57:25;10.90;;;9.50;;
20298;SDS011;10308;42.688;23.256;2023-06-14T07:59:53;10.60;;;9.48;;
20298;SDS011;10308;42.688;23.256;2023-06-14T08:02:23;11.10;;;9.52;;
20298;SDS011;10308;42.688;23.256;2023-06-14T08:04:51;11.02;;;9.93;;
20298;SDS011;10308;42.688;23.256;2023-06-14T08:07:22;11.52;;;10.52;;
20298;SDS011;10308;42.688;23.256;2023-06-14T08:09:50;11.10;;;9.90;;
20298;SDS011;10308;42.688;23.256;2023-06-14T08:12:20;11.90;;;10.68;;
20298;SDS011;10308;42.688;23.256;2023-06-14T08:14:48;10.30;;;9.32;;
20298;SDS011;10308;42.688;23.256;2023-06-14T08:17:16;11.35;;;10.25;;
20298;SDS011;10308;42.688;23.256;2023-06-14T08:19:48;11.73;;;10.55;;
20298;SDS011;10308;42.688;23.256;2023-06-14T08:22:17;11.25;;;10.18;;
20298;SDS011;10308;42.688;23.256;2023-06-14T08:24:48;10.80;;;9.73;;
20298;SDS011;10308;42.688;23.256;2023-06-14T08:27:16;10.98;;;9.88;;
20298;SDS011;10308;42.688;23.256;2023-06-14T08:29:46;9.95;;;9.00;;
20298;SDS011;10308;42.688;23.256;2023-06-14T08:32:15;10.70;;;9.60;;
20298;SDS011;10308;42.688;23.256;2023-06-14T08:34:42;11.68;;;10.48;;
20298;SDS011;10308;42.688;23.256;2023-06-14T08:37:11;10.75;;;9.68;;
20298;SDS011;10308;42.688;23.256;2023-06-14T08:39:38;11.13;;;9.85;;
20298;SDS011;10308;42.688;23.256;2023-06-14T08:42:05;11.90;;;10.70;;
20298;SDS011;10308;42.688;23.256;2023-06-14T08:44:33;12.15;;;10.85;;
20298;SDS011;10308;42.688;23.256;2023-06-14T08:47:00;13.85;;;12.50;;
20298;SDS011;10308;42.688;23.256;2023-06-14T08:49:29;12.20;;;11.00;;
20298;SDS011;10308;42.688;23.256;2023-06-14T08:51:58;12.70;;;11.07;;
20298;SDS011;10308;42.688;23.256;2023-06-14T08:54:28;12.90;;;11.63;;
20298;SDS011;10308;42.688;23.256;2023-06-14T08:56:57;12.38;;;11.18;;
20298;SDS011;10308;42.688;23.256;2023-06-14T08:59:25;13.02;;;11.73;;
20298;SDS011;10308;42.688;23.256;2023-06-14T09:01:53;12.95;;;11.85;;
20298;SDS011;10308;42.688;23.256;2023-06-14T09:04:21;12.30;;;11.05;;
20298;SDS011;10308;42.688;23.256;2023-06-14T09:06:50;10.60;;;9.68;;
20298;SDS011;10308;42.688;23.256;2023-06-14T09:09:19;11.35;;;10.13;;
20298;SDS011;10308;42.688;23.256;2023-06-14T09:11:49;12.43;;;11.13;;
20298;SDS011;10308;42.688;23.256;2023-06-14T09:14:17;13.85;;;11.77;;
20298;SDS011;10308;42.688;23.256;2023-06-14T09:16:46;13.05;;;11.77;;
20298;SDS011;10308;42.688;23.256;2023-06-14T09:19:21;12.15;;;10.95;;
20298;SDS011;10308;42.688;23.256;2023-06-14T09:21:49;12.38;;;11.20;;
20298;SDS011;10308;42.688;23.256;2023-06-14T09:24:19;13.95;;;12.43;;
20298;SDS011;10308;42.688;23.256;2023-06-14T09:26:50;12.38;;;11.10;;
20298;SDS011;10308;42.688;23.256;2023-06-14T09:29:18;12.13;;;10.98;;
20298;SDS011;10308;42.688;23.256;2023-06-14T09:31:46;11.45;;;10.45;;
20298;SDS011;10308;42.688;23.256;2023-06-14T09:34:15;11.32;;;10.23;;
20298;SDS011;10308;42.688;23.256;2023-06-14T09:36:44;10.43;;;9.48;;
20298;SDS011;10308;42.688;23.256;2023-06-14T09:39:16;12.48;;;9.95;;
20298;SDS011;10308;42.688;23.256;2023-06-14T09:41:46;11.43;;;10.35;;
20298;SDS011;10308;42.688;23.256;2023-06-14T09:44:15;11.02;;;9.95;;
20298;SDS011;10308;42.688;23.256;2023-06-14T09:46:46;11.07;;;10.07;;
20298;SDS011;10308;42.688;23.256;2023-06-14T09:49:15;11.95;;;10.85;;
20298;SDS011;10308;42.688;23.256;2023-06-14T09:51:46;11.98;;;10.80;;
20298;SDS011;10308;42.688;23.256;2023-06-14T09:54:19;11.60;;;10.40;;
20298;SDS011;10308;42.688;23.256;2023-06-14T09:56:49;12.75;;;11.55;;
20298;SDS011;10308;42.688;23.256;2023-06-14T09:59:26;10.60;;;9.60;;
20298;SDS011;10308;42.688;23.256;2023-06-14T10:01:57;12.70;;;11.48;;
20298;SDS011;10308;42.688;23.256;2023-06-14T10:04:25;14.27;;;11.63;;
20298;SDS011;10308;42.688;23.256;2023-06-14T10:06:55;13.18;;;11.95;;
20298;SDS011;10308;42.688;23.256;2023-06-14T10:09:24;13.60;;;11.52;;
20298;SDS011;10308;42.688;23.256;2023-06-14T10:11:53;15.52;;;12.43;;
20298;SDS011;10308;42.688;23.256;2023-06-14T10:14:21;12.35;;;11.13;;
20298;SDS011;10308;42.688;23.256;2023-06-14T10:16:50;13.38;;;12.00;;
20298;SDS011;10308;42.688;23.256;2023-06-14T10:19:24;11.93;;;10.75;;
20298;SDS011;10308;42.688;23.256;2023-06-14T10:22:00;13.02;;;11.77;;
20298;SDS011;10308;42.688;23.256;2023-06-14T10:24:31;12.05;;;10.95;;
20298;SDS011;10308;42.688;23.256;2023-06-14T10:26:59;11.52;;;10.43;;
20298;SDS011;10308;42.688;23.256;2023-06-14T10:29:30;12.07;;;10.98;;
20298;SDS011;10308;42.688;23.256;2023-06-14T10:31:58;15.13;;;11.70;;
20298;SDS011;10308;42.688;23.256;2023-06-14T10:34:26;13.65;;;11.70;;
20298;SDS011;10308;42.688;23.256;2023-06-14T10:37:00;12.90;;;11.73;;
20298;SDS011;10308;42.688;23.256;2023-06-14T10:39:30;13.95;;;12.57;;
20298;SDS011;10308;42.688;23.256;2023-06-14T10:41:58;12.60;;;11.30;;
20298;SDS011;10308;42.688;23.256;2023-06-14T10:47:23;12.52;;;11.27;;
20298;SDS011;10308;42.688;23.256;2023-06-14T10:49:52;13.02;;;11.52;;
20298;SDS011;10308;42.688;23.256;2023-06-14T10:52:25;11.75;;;10.68;;
20298;SDS011;10308;42.688;23.256;2023-06-14T10:55:00;13.05;;;11.75;;
20298;SDS011;10308;42.688;23.256;2023-06-14T10:57:41;13.77;;;12.38;;
20298;SDS011;10308;42.688;23.256;2023-06-14T11:00:14;12.57;;;11.38;;
20298;SDS011;10308;42.688;23.256;2023-06-14T11:06:10;12.65;;;11.38;;
20298;SDS011;10308;42.688;23.256;2023-06-14T11:11:31;12.55;;;11.25;;
20298;SDS011;10308;42.688;23.256;2023-06-14T11:14:01;12.80;;;11.43;;
20298;SDS011;10308;42.688;23.256;2023-06-14T11:16:30;11.05;;;10.05;;
20298;SDS011;10308;42.688;23.256;2023-06-14T11:19:00;10.88;;;9.88;;
20298;SDS011;10308;42.688;23.256;2023-06-14T11:21:32;11.15;;;10.05;;
20298;SDS011;10308;42.688;23.256;2023-06-14T11:23:59;11.73;;;10.68;;
20298;SDS011;10308;42.688;23.256;2023-06-14T11:26:27;11.75;;;10.52;;
20298;SDS011;10308;42.688;23.256;2023-06-14T11:28:56;11.60;;;10.50;;
20298;SDS011;10308;42.688;23.256;2023-06-14T11:31:25;12.00;;;10.75;;
20298;SDS011;10308;42.688;23.256;2023-06-14T11:33:55;12.75;;;10.95;;
20298;SDS011;10308;42.688;23.256;2023-06-14T11:36:26;12.48;;;10.93;;
20298;SDS011;10308;42.688;23.256;2023-06-14T11:38:57;10.48;;;9.57;;
20298;SDS011;10308;42.688;23.256;2023-06-14T11:41:32;10.90;;;9.90;;
20298;SDS011;10308;42.688;23.256;2023-06-14T11:44:00;10.95;;;9.95;;
20298;SDS011;10308;42.688;23.256;2023-06-14T11:46:29;11.18;;;10.07;;
20298;SDS011;10308;42.688;23.256;2023-06-14T11:48:58;11.15;;;10.02;;
20298;SDS011;10308;42.688;23.256;2023-06-14T11:51:29;11.10;;;9.98;;
20298;SDS011;10308;42.688;23.256;2023-06-14T11:53:57;10.70;;;9.70;;
20298;SDS011;10308;42.688;23.256;2023-06-14T11:56:26;11.63;;;10.23;;
20298;SDS011;10308;42.688;23.256;2023-06-14T11:58:56;10.45;;;9.20;;
20298;SDS011;10308;42.688;23.256;2023-06-14T12:01:23;9.95;;;8.95;;
20298;SDS011;10308;42.688;23.256;2023-06-14T12:03:53;12.82;;;9.90;;
20298;SDS011;10308;42.688;23.256;2023-06-14T12:06:32;10.20;;;9.15;;
20298;SDS011;10308;42.688;23.256;2023-06-14T12:09:04;10.13;;;9.18;;
20298;SDS011;10308;42.688;23.256;2023-06-14T12:11:34;10.15;;;9.15;;
20298;SDS011;10308;42.688;23.256;2023-06-14T12:14:03;9.95;;;9.02;;
20298;SDS011;10308;42.688;23.256;2023-06-14T12:16:34;9.25;;;8.45;;
20298;SDS011;10308;42.688;23.256;2023-06-14T12:19:07;10.27;;;9.38;;
20298;SDS011;10308;42.688;23.256;2023-06-14T12:21:39;10.43;;;9.35;;
20298;SDS011;10308;42.688;23.256;2023-06-14T12:24:07;9.73;;;8.82;;
20298;SDS011;10308;42.688;23.256;2023-06-14T12:26:38;9.52;;;8.63;;
20298;SDS011;10308;42.688;23.256;2023-06-14T12:29:06;9.00;;;8.20;;
20298;SDS011;10308;42.688;23.256;2023-06-14T12:31:38;8.98;;;8.07;;
20298;SDS011;10308;42.688;23.256;2023-06-14T12:34:07;8.85;;;8.05;;
20298;SDS011;10308;42.688;23.256;2023-06-14T12:36:34;9.27;;;8.48;;
20298;SDS011;10308;42.688;23.256;2023-06-14T12:39:10;10.77;;;8.88;;
20298;SDS011;10308;42.688;23.256;2023-06-14T12:41:38;9.13;;;8.32;;
20298;SDS011;10308;42.688;23.256;2023-06-14T12:44:08;7.60;;;7.00;;
20298;SDS011;10308;42.688;23.256;2023-06-14T12:46:37;7.85;;;7.25;;
20298;SDS011;10308;42.688;23.256;2023-06-14T12:49:04;8.52;;;7.72;;
20298;SDS011;10308;42.688;23.256;2023-06-14T12:51:35;9.02;;;8.23;;
20298;SDS011;10308;42.688;23.256;2023-06-14T12:54:03;8.88;;;8.18;;
20298;SDS011;10308;42.688;23.256;2023-06-14T12:56:32;9.23;;;8.10;;
20298;SDS011;10308;42.688;23.256;2023-06-14T12:58:59;8.73;;;7.93;;
20298;SDS011;10308;42.688;23.256;2023-06-14T13:01:27;7.97;;;7.28;;
20298;SDS011;10308;42.688;23.256;2023-06-14T13:03:57;7.43;;;6.82;;
20298;SDS011;10308;42.688;23.256;2023-06-14T13:06:25;7.05;;;6.43;;
20298;SDS011;10308;42.688;23.256;2023-06-14T13:08:53;7.50;;;6.85;;
20298;SDS011;10308;42.688;23.256;2023-06-14T13:11:23;7.30;;;6.70;;
20298;SDS011;10308;42.688;23.256;2023-06-14T13:13:53;8.02;;;7.32;;
20298;SDS011;10308;42.688;23.256;2023-06-14T13:16:21;8.07;;;7.38;;
20298;SDS011;10308;42.688;23.256;2023-06-14T13:18:49;8.55;;;7.75;;
20298;SDS011;10308;42.688;23.256;2023-06-14T13:21:17;7.90;;;7.10;;
20298;SDS011;10308;42.688;23.256;2023-06-14T13:23:46;7.70;;;6.78;;
20298;SDS011;10308;42.688;23.256;2023-06-14T13:26:14;8.48;;;7.65;;
20298;SDS011;10308;42.688;23.256;2023-06-14T13:28:43;7.70;;;7.10;;
20298;SDS011;10308;42.688;23.256;2023-06-14T13:31:13;7.20;;;6.60;;
20298;SDS011;10308;42.688;23.256;2023-06-14T13:33:41;7.78;;;7.00;;
20298;SDS011;10308;42.688;23.256;2023-06-14T13:36:09;7.15;;;6.45;;
20298;SDS011;10308;42.688;23.256;2023-06-14T13:38:37;6.78;;;6.28;;
20298;SDS011;10308;42.688;23.256;2023-06-14T13:41:04;7.07;;;6.47;;
20298;SDS011;10308;42.688;23.256;2023-06-14T13:43:32;7.13;;;6.43;;
20298;SDS011;10308;42.688;23.256;2023-06-14T13:46:00;7.63;;;6.82;;
20298;SDS011;10308;42.688;23.256;2023-06-14T13:48:30;6.80;;;6.20;;
20298;SDS011;10308;42.688;23.256;2023-06-14T13:50:59;7.20;;;6.60;;
20298;SDS011;10308;42.688;23.256;2023-06-14T13:53:27;6.82;;;6.00;;
20298;SDS011;10308;42.688;23.256;2023-06-14T13:55:57;7.57;;;6.88;;
20298;SDS011;10308;42.688;23.256;2023-06-14T13:58:25;6.65;;;5.90;;
20298;SDS011;10308;42.688;23.256;2023-06-14T14:00:54;6.63;;;6.00;;
20298;SDS011;10308;42.688;23.256;2023-06-14T14:03:22;7.13;;;6.53;;
20298;SDS011;10308;42.688;23.256;2023-06-14T14:05:52;7.72;;;7.03;;
20298;SDS011;10308;42.688;23.256;2023-06-14T14:08:20;7.95;;;7.25;;
20298;SDS011;10308;42.688;23.256;2023-06-14T14:10:48;8.48;;;6.60;;
20298;SDS011;10308;42.688;23.256;2023-06-14T14:13:15;7.88;;;7.07;;
20298;SDS011;10308;42.688;23.256;2023-06-14T14:15:43;6.57;;;6.07;;
20298;SDS011;10308;42.688;23.256;2023-06-14T14:18:11;7.10;;;6.40;;
20298;SDS011;10308;42.688;23.256;2023-06-14T14:20:39;6.85;;;6.25;;
20298;SDS011;10308;42.688;23.256;2023-06-14T14:23:07;7.18;;;6.45;;
20298;SDS011;10308;42.688;23.256;2023-06-14T14:25:35;7.93;;;7.22;;
20298;SDS011;10308;42.688;23.256;2023-06-14T14:28:03;7.15;;;6.55;;
20298;SDS011;10308;42.688;23.256;2023-06-14T14:30:33;7.88;;;7.18;;
20298;SDS011;10308;42.688;23.256;2023-06-14T14:33:00;7.78;;;6.95;;
20298;SDS011;10308;42.688;23.256;2023-06-14T14:35:27;7.88;;;7.18;;
20298;SDS011;10308;42.688;23.256;2023-06-14T14:37:57;7.88;;;7.18;;
20298;SDS011;10308;42.688;23.256;2023-06-14T14:40:27;8.77;;;7.90;;
20298;SDS011;10308;42.688;23.256;2023-06-14T14:42:57;8.38;;;7.45;;
20298;SDS011;10308;42.688;23.256;2023-06-14T14:45:24;7.47;;;6.78;;